sensor_id;sensor_type;location;lat;lon;timestamp;P1;durP1;ratioP1;P2;durP2;ratioP2
80272;SDS011;69574;45.328;9.598;2023-05-07T00:00:28;51.33;;;43.35;;
80272;SDS011;69574;45.328;9.598;2023-05-07T00:02:53;49.97;;;42.85;;
80272;SDS011;69574;45.328;9.598;2023-05-07T00:05:20;52.55;;;42.50;;
80272;SDS011;69574;45.328;9.598;2023-05-07T00:07:46;48.97;;;40.45;;
80272;SDS011;69574;45.328;9.598;2023-05-07T00:10:12;54.35;;;44.80;;
80272;SDS011;69574;45.328;9.598;2023-05-07T00:12:37;55.55;;;44.35;;
80272;SDS011;69574;45.328;9.598;2023-05-07T00:15:03;53.90;;;45.65;;
80272;SDS011;69574;45.328;9.598;2023-05-07T00:17:29;54.60;;;44.13;;
80272;SDS011;69574;45.328;9.598;2023-05-07T00:19:55;51.13;;;44.10;;
80272;SDS011;69574;45.328;9.598;2023-05-07T00:22:22;51.58;;;41.97;;
80272;SDS011;69574;45.328;9.598;2023-05-07T00:24:48;48.85;;;41.10;;
80272;SDS011;69574;45.328;9.598;2023-05-07T00:27:13;48.13;;;39.58;;
80272;SDS011;69574;45.328;9.598;2023-05-07T00:29:39;52.63;;;39.90;;
80272;SDS011;69574;45.328;9.598;2023-05-07T00:32:05;51.15;;;41.42;;
80272;SDS011;69574;45.328;9.598;2023-05-07T00:34:30;50.13;;;40.42;;
80272;SDS011;69574;45.328;9.598;2023-05-07T00:36:56;49.65;;;40.17;;
80272;SDS011;69574;45.328;9.598;2023-05-07T00:39:23;51.33;;;42.08;;
80272;SDS011;69574;45.328;9.598;2023-05-07T00:41:49;50.08;;;41.67;;
80272;SDS011;69574;45.328;9.598;2023-05-07T00:44:16;49.25;;;40.53;;
80272;SDS011;69574;45.328;9.598;2023-05-07T00:46:43;50.83;;;39.25;;
80272;SDS011;69574;45.328;9.598;2023-05-07T00:49:10;47.03;;;39.90;;
80272;SDS011;69574;45.328;9.598;2023-05-07T00:51:35;54.15;;;44.83;;
80272;SDS011;69574;45.328;9.598;2023-05-07T00:54:02;51.85;;;41.70;;
80272;SDS011;69574;45.328;9.598;2023-05-07T00:56:29;50.80;;;42.38;;
80272;SDS011;69574;45.328;9.598;2023-05-07T00:58:55;52.80;;;42.08;;
80272;SDS011;69574;45.328;9.598;2023-05-07T01:01:21;49.58;;;40.58;;
80272;SDS011;69574;45.328;9.598;2023-05-07T01:03:46;51.30;;;40.72;;
80272;SDS011;69574;45.328;9.598;2023-05-07T01:06:12;46.75;;;40.15;;
80272;SDS011;69574;45.328;9.598;2023-05-07T01:08:38;47.45;;;40.03;;
80272;SDS011;69574;45.328;9.598;2023-05-07T01:13:32;53.55;;;43.03;;
80272;SDS011;69574;45.328;9.598;2023-05-07T01:15:58;50.33;;;42.40;;
80272;SDS011;69574;45.328;9.598;2023-05-07T01:18:23;54.88;;;43.33;;
80272;SDS011;69574;45.328;9.598;2023-05-07T01:20:51;51.92;;;42.90;;
80272;SDS011;69574;45.328;9.598;2023-05-07T01:23:18;53.00;;;43.50;;
80272;SDS011;69574;45.328;9.598;2023-05-07T01:25:50;52.75;;;43.10;;
80272;SDS011;69574;45.328;9.598;2023-05-07T01:28:16;50.80;;;42.63;;
80272;SDS011;69574;45.328;9.598;2023-05-07T01:30:42;48.63;;;41.25;;
80272;SDS011;69574;45.328;9.598;2023-05-07T01:33:09;46.95;;;40.33;;
80272;SDS011;69574;45.328;9.598;2023-05-07T01:35:37;48.70;;;40.25;;
80272;SDS011;69574;45.328;9.598;2023-05-07T01:38:04;54.28;;;44.25;;
80272;SDS011;69574;45.328;9.598;2023-05-07T01:40:32;49.45;;;39.97;;
80272;SDS011;69574;45.328;9.598;2023-05-07T01:42:59;53.55;;;44.10;;
80272;SDS011;69574;45.328;9.598;2023-05-07T01:45:25;52.88;;;42.50;;
80272;SDS011;69574;45.328;9.598;2023-05-07T01:47:51;49.78;;;40.67;;
80272;SDS011;69574;45.328;9.598;2023-05-07T01:50:18;47.75;;;39.97;;
80272;SDS011;69574;45.328;9.598;2023-05-07T01:52:44;48.90;;;40.08;;
80272;SDS011;69574;45.328;9.598;2023-05-07T01:55:10;52.42;;;41.05;;
80272;SDS011;69574;45.328;9.598;2023-05-07T01:57:37;49.50;;;40.20;;
80272;SDS011;69574;45.328;9.598;2023-05-07T02:00:03;52.45;;;42.00;;
80272;SDS011;69574;45.328;9.598;2023-05-07T02:02:30;49.55;;;38.40;;
80272;SDS011;69574;45.328;9.598;2023-05-07T02:04:56;47.88;;;40.15;;
80272;SDS011;69574;45.328;9.598;2023-05-07T02:07:22;49.13;;;40.67;;
80272;SDS011;69574;45.328;9.598;2023-05-07T02:09:47;50.05;;;42.40;;
80272;SDS011;69574;45.328;9.598;2023-05-07T02:12:13;50.53;;;42.47;;
80272;SDS011;69574;45.328;9.598;2023-05-07T02:14:40;49.47;;;39.63;;
80272;SDS011;69574;45.328;9.598;2023-05-07T02:17:06;48.33;;;39.17;;
80272;SDS011;69574;45.328;9.598;2023-05-07T02:19:31;38.25;;;30.63;;
80272;SDS011;69574;45.328;9.598;2023-05-07T02:21:57;40.72;;;30.13;;
80272;SDS011;69574;45.328;9.598;2023-05-07T02:24:23;28.02;;;22.77;;
80272;SDS011;69574;45.328;9.598;2023-05-07T02:26:49;27.75;;;21.10;;
80272;SDS011;69574;45.328;9.598;2023-05-07T02:29:14;26.17;;;14.52;;
80272;SDS011;69574;45.328;9.598;2023-05-07T02:31:42;13.35;;;10.88;;
80272;SDS011;69574;45.328;9.598;2023-05-07T02:34:07;10.05;;;7.90;;
80272;SDS011;69574;45.328;9.598;2023-05-07T02:36:33;12.93;;;4.60;;
80272;SDS011;69574;45.328;9.598;2023-05-07T02:38:59;5.95;;;3.70;;
80272;SDS011;69574;45.328;9.598;2023-05-07T02:41:24;6.18;;;3.83;;
80272;SDS011;69574;45.328;9.598;2023-05-07T02:43:50;4.68;;;2.92;;
80272;SDS011;69574;45.328;9.598;2023-05-07T02:46:16;7.80;;;2.97;;
80272;SDS011;69574;45.328;9.598;2023-05-07T02:48:43;5.68;;;2.47;;
80272;SDS011;69574;45.328;9.598;2023-05-07T02:51:08;5.35;;;2.40;;
80272;SDS011;69574;45.328;9.598;2023-05-07T02:53:34;5.90;;;2.75;;
80272;SDS011;69574;45.328;9.598;2023-05-07T02:56:00;6.38;;;2.88;;
80272;SDS011;69574;45.328;9.598;2023-05-07T02:58:26;6.45;;;2.60;;
80272;SDS011;69574;45.328;9.598;2023-05-07T03:00:52;6.22;;;2.65;;
80272;SDS011;69574;45.328;9.598;2023-05-07T03:03:18;9.60;;;2.80;;
80272;SDS011;69574;45.328;9.598;2023-05-07T03:05:45;5.55;;;2.47;;
80272;SDS011;69574;45.328;9.598;2023-05-07T03:08:11;3.60;;;2.25;;
80272;SDS011;69574;45.328;9.598;2023-05-07T03:10:37;3.65;;;2.33;;
80272;SDS011;69574;45.328;9.598;2023-05-07T03:13:03;5.00;;;2.50;;
80272;SDS011;69574;45.328;9.598;2023-05-07T03:15:28;4.20;;;2.50;;
80272;SDS011;69574;45.328;9.598;2023-05-07T03:17:54;5.90;;;2.40;;
80272;SDS011;69574;45.328;9.598;2023-05-07T03:20:20;3.88;;;2.35;;
80272;SDS011;69574;45.328;9.598;2023-05-07T03:22:47;8.32;;;2.50;;
80272;SDS011;69574;45.328;9.598;2023-05-07T03:25:12;4.13;;;2.33;;
80272;SDS011;69574;45.328;9.598;2023-05-07T03:30:05;4.18;;;2.33;;
80272;SDS011;69574;45.328;9.598;2023-05-07T03:32:32;5.85;;;2.70;;
80272;SDS011;69574;45.328;9.598;2023-05-07T03:34:57;5.43;;;2.65;;
80272;SDS011;69574;45.328;9.598;2023-05-07T03:37:23;5.72;;;3.08;;
80272;SDS011;69574;45.328;9.598;2023-05-07T03:39:50;5.20;;;2.25;;
80272;SDS011;69574;45.328;9.598;2023-05-07T03:42:16;8.35;;;3.05;;
80272;SDS011;69574;45.328;9.598;2023-05-07T03:44:41;5.70;;;2.70;;
80272;SDS011;69574;45.328;9.598;2023-05-07T03:47:07;4.68;;;2.60;;
80272;SDS011;69574;45.328;9.598;2023-05-07T03:49:33;4.22;;;2.40;;
80272;SDS011;69574;45.328;9.598;2023-05-07T03:51:59;4.80;;;2.35;;
80272;SDS011;69574;45.328;9.598;2023-05-07T03:54:24;4.88;;;2.17;;
80272;SDS011;69574;45.328;9.598;2023-05-07T03:56:51;8.60;;;2.25;;
80272;SDS011;69574;45.328;9.598;2023-05-07T03:59:17;5.80;;;2.20;;
80272;SDS011;69574;45.328;9.598;2023-05-07T04:01:43;4.13;;;1.83;;
80272;SDS011;69574;45.328;9.598;2023-05-07T04:04:08;4.35;;;1.90;;
80272;SDS011;69574;45.328;9.598;2023-05-07T04:06:34;7.15;;;2.10;;
80272;SDS011;69574;45.328;9.598;2023-05-07T04:09:00;3.63;;;2.05;;
80272;SDS011;69574;45.328;9.598;2023-05-07T04:11:26;18.05;;;2.28;;
80272;SDS011;69574;45.328;9.598;2023-05-07T04:13:53;10.57;;;2.33;;
80272;SDS011;69574;45.328;9.598;2023-05-07T04:16:19;8.15;;;2.05;;
80272;SDS011;69574;45.328;9.598;2023-05-07T04:18:44;6.30;;;2.50;;
80272;SDS011;69574;45.328;9.598;2023-05-07T04:21:13;14.57;;;2.38;;
80272;SDS011;69574;45.328;9.598;2023-05-07T04:23:39;30.58;;;4.13;;
80272;SDS011;69574;45.328;9.598;2023-05-07T04:26:05;6.22;;;2.33;;
80272;SDS011;69574;45.328;9.598;2023-05-07T04:28:30;4.53;;;2.10;;
80272;SDS011;69574;45.328;9.598;2023-05-07T04:30:57;7.60;;;2.22;;
80272;SDS011;69574;45.328;9.598;2023-05-07T04:33:23;4.15;;;2.10;;
80272;SDS011;69574;45.328;9.598;2023-05-07T04:35:49;4.47;;;2.10;;
80272;SDS011;69574;45.328;9.598;2023-05-07T04:38:15;3.85;;;1.83;;
80272;SDS011;69574;45.328;9.598;2023-05-07T04:40:41;7.35;;;2.28;;
80272;SDS011;69574;45.328;9.598;2023-05-07T04:43:07;6.00;;;2.20;;
80272;SDS011;69574;45.328;9.598;2023-05-07T04:45:34;5.68;;;2.42;;
80272;SDS011;69574;45.328;9.598;2023-05-07T04:48:01;6.45;;;2.47;;
80272;SDS011;69574;45.328;9.598;2023-05-07T04:50:27;4.32;;;2.28;;
80272;SDS011;69574;45.328;9.598;2023-05-07T04:52:52;4.28;;;2.30;;
80272;SDS011;69574;45.328;9.598;2023-05-07T04:55:18;4.15;;;2.20;;
80272;SDS011;69574;45.328;9.598;2023-05-07T04:57:44;4.45;;;2.10;;
80272;SDS011;69574;45.328;9.598;2023-05-07T05:00:10;4.95;;;2.10;;
80272;SDS011;69574;45.328;9.598;2023-05-07T05:02:39;3.95;;;2.13;;
80272;SDS011;69574;45.328;9.598;2023-05-07T05:05:07;3.55;;;2.10;;
80272;SDS011;69574;45.328;9.598;2023-05-07T05:07:33;6.03;;;2.38;;
80272;SDS011;69574;45.328;9.598;2023-05-07T05:09:58;4.15;;;2.30;;
80272;SDS011;69574;45.328;9.598;2023-05-07T05:12:24;6.10;;;2.20;;
80272;SDS011;69574;45.328;9.598;2023-05-07T05:14:50;30.98;;;3.58;;
80272;SDS011;69574;45.328;9.598;2023-05-07T05:17:15;14.55;;;2.33;;
80272;SDS011;69574;45.328;9.598;2023-05-07T05:19:41;27.17;;;3.17;;
80272;SDS011;69574;45.328;9.598;2023-05-07T05:22:08;9.45;;;2.15;;
80272;SDS011;69574;45.328;9.598;2023-05-07T05:24:34;6.07;;;1.90;;
80272;SDS011;69574;45.328;9.598;2023-05-07T05:26:59;6.35;;;1.90;;
80272;SDS011;69574;45.328;9.598;2023-05-07T05:29:27;4.82;;;1.83;;
80272;SDS011;69574;45.328;9.598;2023-05-07T05:31:52;4.70;;;1.90;;
80272;SDS011;69574;45.328;9.598;2023-05-07T05:34:18;6.15;;;2.35;;
80272;SDS011;69574;45.328;9.598;2023-05-07T05:36:45;3.00;;;1.70;;
80272;SDS011;69574;45.328;9.598;2023-05-07T05:39:12;3.47;;;1.98;;
80272;SDS011;69574;45.328;9.598;2023-05-07T05:41:37;4.28;;;2.10;;
80272;SDS011;69574;45.328;9.598;2023-05-07T05:44:03;4.63;;;2.10;;
80272;SDS011;69574;45.328;9.598;2023-05-07T05:46:29;3.63;;;2.00;;
80272;SDS011;69574;45.328;9.598;2023-05-07T05:48:55;4.40;;;2.20;;
80272;SDS011;69574;45.328;9.598;2023-05-07T05:51:20;4.90;;;2.15;;
80272;SDS011;69574;45.328;9.598;2023-05-07T05:53:46;3.00;;;1.83;;
80272;SDS011;69574;45.328;9.598;2023-05-07T05:56:14;86.10;;;7.10;;
80272;SDS011;69574;45.328;9.598;2023-05-07T05:58:40;20.85;;;3.67;;
80272;SDS011;69574;45.328;9.598;2023-05-07T06:01:06;7.00;;;2.35;;
80272;SDS011;69574;45.328;9.598;2023-05-07T06:03:32;6.28;;;2.30;;
80272;SDS011;69574;45.328;9.598;2023-05-07T06:05:57;3.88;;;2.33;;
80272;SDS011;69574;45.328;9.598;2023-05-07T06:08:23;9.02;;;2.50;;
80272;SDS011;69574;45.328;9.598;2023-05-07T06:10:49;6.53;;;2.47;;
80272;SDS011;69574;45.328;9.598;2023-05-07T06:13:16;5.70;;;2.30;;
80272;SDS011;69574;45.328;9.598;2023-05-07T06:15:42;6.30;;;2.30;;
80272;SDS011;69574;45.328;9.598;2023-05-07T06:18:07;4.82;;;2.13;;
80272;SDS011;69574;45.328;9.598;2023-05-07T06:20:33;4.05;;;2.17;;
80272;SDS011;69574;45.328;9.598;2023-05-07T06:22:58;6.10;;;2.30;;
80272;SDS011;69574;45.328;9.598;2023-05-07T06:25:24;5.22;;;2.38;;
80272;SDS011;69574;45.328;9.598;2023-05-07T06:27:50;4.00;;;1.98;;
80272;SDS011;69574;45.328;9.598;2023-05-07T06:30:17;4.90;;;2.25;;
80272;SDS011;69574;45.328;9.598;2023-05-07T06:32:42;5.38;;;1.92;;
80272;SDS011;69574;45.328;9.598;2023-05-07T06:35:08;3.72;;;1.90;;
80272;SDS011;69574;45.328;9.598;2023-05-07T06:37:34;4.90;;;2.10;;
80272;SDS011;69574;45.328;9.598;2023-05-07T06:39:59;6.45;;;2.20;;
80272;SDS011;69574;45.328;9.598;2023-05-07T06:42:25;3.45;;;2.05;;
80272;SDS011;69574;45.328;9.598;2023-05-07T06:44:52;5.55;;;2.63;;
80272;SDS011;69574;45.328;9.598;2023-05-07T06:47:19;5.95;;;2.55;;
80272;SDS011;69574;45.328;9.598;2023-05-07T06:49:44;5.35;;;2.10;;
80272;SDS011;69574;45.328;9.598;2023-05-07T06:52:10;6.30;;;2.20;;
80272;SDS011;69574;45.328;9.598;2023-05-07T06:54:36;4.28;;;2.13;;
80272;SDS011;69574;45.328;9.598;2023-05-07T06:57:01;9.23;;;2.47;;
80272;SDS011;69574;45.328;9.598;2023-05-07T06:59:27;7.53;;;2.80;;
80272;SDS011;69574;45.328;9.598;2023-05-07T07:01:53;8.00;;;2.25;;
80272;SDS011;69574;45.328;9.598;2023-05-07T07:04:20;4.28;;;2.60;;
80272;SDS011;69574;45.328;9.598;2023-05-07T07:06:47;17.20;;;3.20;;
80272;SDS011;69574;45.328;9.598;2023-05-07T07:09:13;6.15;;;2.50;;
80272;SDS011;69574;45.328;9.598;2023-05-07T07:11:38;8.82;;;2.40;;
80272;SDS011;69574;45.328;9.598;2023-05-07T07:14:04;9.02;;;2.45;;
80272;SDS011;69574;45.328;9.598;2023-05-07T07:16:30;10.35;;;3.30;;
80272;SDS011;69574;45.328;9.598;2023-05-07T07:18:55;5.00;;;2.70;;
80272;SDS011;69574;45.328;9.598;2023-05-07T07:21:23;5.35;;;2.00;;
80272;SDS011;69574;45.328;9.598;2023-05-07T07:23:48;4.65;;;2.22;;
80272;SDS011;69574;45.328;9.598;2023-05-07T07:26:14;4.32;;;2.13;;
80272;SDS011;69574;45.328;9.598;2023-05-07T07:28:42;3.67;;;2.38;;
80272;SDS011;69574;45.328;9.598;2023-05-07T07:31:09;5.07;;;2.15;;
80272;SDS011;69574;45.328;9.598;2023-05-07T07:33:34;5.80;;;2.53;;
80272;SDS011;69574;45.328;9.598;2023-05-07T07:36:00;6.10;;;2.72;;
80272;SDS011;69574;45.328;9.598;2023-05-07T07:38:27;5.28;;;2.50;;
80272;SDS011;69574;45.328;9.598;2023-05-07T07:40:53;12.02;;;1.95;;
80272;SDS011;69574;45.328;9.598;2023-05-07T07:43:18;7.40;;;2.13;;
80272;SDS011;69574;45.328;9.598;2023-05-07T07:45:44;5.55;;;1.88;;
80272;SDS011;69574;45.328;9.598;2023-05-07T07:48:11;4.45;;;1.90;;
80272;SDS011;69574;45.328;9.598;2023-05-07T07:50:36;5.15;;;1.90;;
80272;SDS011;69574;45.328;9.598;2023-05-07T07:53:02;4.43;;;1.83;;
80272;SDS011;69574;45.328;9.598;2023-05-07T07:55:29;3.40;;;1.90;;
80272;SDS011;69574;45.328;9.598;2023-05-07T07:57:56;5.25;;;2.03;;
80272;SDS011;69574;45.328;9.598;2023-05-07T08:00:22;4.28;;;2.03;;
80272;SDS011;69574;45.328;9.598;2023-05-07T08:02:47;4.53;;;2.03;;
80272;SDS011;69574;45.328;9.598;2023-05-07T08:05:13;3.70;;;2.00;;
80272;SDS011;69574;45.328;9.598;2023-05-07T08:07:38;4.35;;;2.30;;
80272;SDS011;69574;45.328;9.598;2023-05-07T08:10:04;4.65;;;2.33;;
80272;SDS011;69574;45.328;9.598;2023-05-07T08:12:32;4.60;;;2.38;;
80272;SDS011;69574;45.328;9.598;2023-05-07T08:14:57;3.70;;;2.20;;
80272;SDS011;69574;45.328;9.598;2023-05-07T08:17:23;4.63;;;2.45;;
80272;SDS011;69574;45.328;9.598;2023-05-07T08:19:49;4.68;;;2.72;;
80272;SDS011;69574;45.328;9.598;2023-05-07T08:22:14;3.55;;;2.33;;
80272;SDS011;69574;45.328;9.598;2023-05-07T08:24:40;4.13;;;2.53;;
80272;SDS011;69574;45.328;9.598;2023-05-07T08:27:06;3.83;;;2.25;;
80272;SDS011;69574;45.328;9.598;2023-05-07T08:29:33;4.93;;;2.85;;
80272;SDS011;69574;45.328;9.598;2023-05-07T08:31:59;14.18;;;2.88;;
80272;SDS011;69574;45.328;9.598;2023-05-07T08:34:24;5.53;;;2.60;;
80272;SDS011;69574;45.328;9.598;2023-05-07T08:36:50;4.25;;;2.42;;
80272;SDS011;69574;45.328;9.598;2023-05-07T08:39:16;3.65;;;2.47;;
80272;SDS011;69574;45.328;9.598;2023-05-07T08:41:44;6.55;;;2.60;;
80272;SDS011;69574;45.328;9.598;2023-05-07T08:44:11;4.82;;;2.60;;
80272;SDS011;69574;45.328;9.598;2023-05-07T08:46:38;4.43;;;2.60;;
80272;SDS011;69574;45.328;9.598;2023-05-07T08:49:04;10.70;;;3.17;;
80272;SDS011;69574;45.328;9.598;2023-05-07T08:51:31;40.72;;;4.75;;
80272;SDS011;69574;45.328;9.598;2023-05-07T08:53:56;12.85;;;3.03;;
80272;SDS011;69574;45.328;9.598;2023-05-07T08:58:48;4.97;;;2.00;;
80272;SDS011;69574;45.328;9.598;2023-05-07T09:01:14;9.93;;;2.53;;
80272;SDS011;69574;45.328;9.598;2023-05-07T09:03:41;7.57;;;2.20;;
80272;SDS011;69574;45.328;9.598;2023-05-07T09:06:09;182.13;;;13.38;;
80272;SDS011;69574;45.328;9.598;2023-05-07T09:08:35;17.92;;;3.13;;
80272;SDS011;69574;45.328;9.598;2023-05-07T09:11:01;12.18;;;3.13;;
80272;SDS011;69574;45.328;9.598;2023-05-07T09:13:27;12.32;;;3.28;;
80272;SDS011;69574;45.328;9.598;2023-05-07T09:15:52;4.35;;;2.67;;
80272;SDS011;69574;45.328;9.598;2023-05-07T09:18:18;580.42;;;48.42;;
80272;SDS011;69574;45.328;9.598;2023-05-07T09:20:45;40.53;;;6.35;;
80272;SDS011;69574;45.328;9.598;2023-05-07T09:23:11;8.63;;;2.72;;
80272;SDS011;69574;45.328;9.598;2023-05-07T09:25:37;6.47;;;3.00;;
80272;SDS011;69574;45.328;9.598;2023-05-07T09:28:03;6.80;;;3.17;;
80272;SDS011;69574;45.328;9.598;2023-05-07T09:30:29;5.53;;;4.03;;
80272;SDS011;69574;45.328;9.598;2023-05-07T09:32:55;6.50;;;3.63;;
80272;SDS011;69574;45.328;9.598;2023-05-07T09:35:21;5.70;;;3.53;;
80272;SDS011;69574;45.328;9.598;2023-05-07T09:37:50;5.50;;;3.22;;
80272;SDS011;69574;45.328;9.598;2023-05-07T09:40:20;4.55;;;2.90;;
80272;SDS011;69574;45.328;9.598;2023-05-07T09:42:46;3.90;;;2.80;;
80272;SDS011;69574;45.328;9.598;2023-05-07T09:45:12;6.47;;;3.28;;
80272;SDS011;69574;45.328;9.598;2023-05-07T09:47:38;4.28;;;3.00;;
80272;SDS011;69574;45.328;9.598;2023-05-07T09:50:05;6.35;;;3.08;;
80272;SDS011;69574;45.328;9.598;2023-05-07T09:52:33;8.93;;;3.42;;
80272;SDS011;69574;45.328;9.598;2023-05-07T09:55:02;10.15;;;3.50;;
80272;SDS011;69574;45.328;9.598;2023-05-07T09:57:28;4.55;;;3.28;;
80272;SDS011;69574;45.328;9.598;2023-05-07T09:59:54;5.45;;;3.35;;
80272;SDS011;69574;45.328;9.598;2023-05-07T10:02:21;6.70;;;3.25;;
80272;SDS011;69574;45.328;9.598;2023-05-07T10:04:47;6.88;;;3.20;;
80272;SDS011;69574;45.328;9.598;2023-05-07T10:07:13;5.22;;;3.20;;
80272;SDS011;69574;45.328;9.598;2023-05-07T10:09:39;11.35;;;3.60;;
80272;SDS011;69574;45.328;9.598;2023-05-07T10:12:09;4.53;;;2.92;;
80272;SDS011;69574;45.328;9.598;2023-05-07T10:14:35;4.55;;;3.30;;
80272;SDS011;69574;45.328;9.598;2023-05-07T10:17:00;6.50;;;3.30;;
80272;SDS011;69574;45.328;9.598;2023-05-07T10:21:54;5.20;;;3.07;;
80272;SDS011;69574;45.328;9.598;2023-05-07T10:24:25;4.65;;;2.55;;
80272;SDS011;69574;45.328;9.598;2023-05-07T10:26:51;5.15;;;2.47;;
80272;SDS011;69574;45.328;9.598;2023-05-07T10:29:21;6.80;;;2.92;;
80272;SDS011;69574;45.328;9.598;2023-05-07T10:31:55;12.13;;;2.78;;
80272;SDS011;69574;45.328;9.598;2023-05-07T10:34:23;4.22;;;2.30;;
80272;SDS011;69574;45.328;9.598;2023-05-07T10:36:50;5.18;;;2.70;;
80272;SDS011;69574;45.328;9.598;2023-05-07T10:39:17;3.97;;;2.60;;
80272;SDS011;69574;45.328;9.598;2023-05-07T10:41:42;4.72;;;2.58;;
80272;SDS011;69574;45.328;9.598;2023-05-07T10:44:08;3.90;;;2.72;;
80272;SDS011;69574;45.328;9.598;2023-05-07T10:46:35;4.47;;;3.00;;
80272;SDS011;69574;45.328;9.598;2023-05-07T10:49:10;9.77;;;3.00;;
80272;SDS011;69574;45.328;9.598;2023-05-07T10:51:36;4.25;;;2.22;;
80272;SDS011;69574;45.328;9.598;2023-05-07T10:56:43;4.40;;;1.98;;
80272;SDS011;69574;45.328;9.598;2023-05-07T10:59:31;3.30;;;1.90;;
80272;SDS011;69574;45.328;9.598;2023-05-07T11:01:58;4.55;;;2.25;;
80272;SDS011;69574;45.328;9.598;2023-05-07T11:04:24;3.70;;;2.08;;
80272;SDS011;69574;45.328;9.598;2023-05-07T11:09:55;3.33;;;2.13;;
80272;SDS011;69574;45.328;9.598;2023-05-07T11:15:04;4.38;;;2.40;;
80272;SDS011;69574;45.328;9.598;2023-05-07T11:17:31;5.93;;;2.28;;
80272;SDS011;69574;45.328;9.598;2023-05-07T11:19:59;4.35;;;1.98;;
80272;SDS011;69574;45.328;9.598;2023-05-07T11:22:37;3.85;;;1.92;;
80272;SDS011;69574;45.328;9.598;2023-05-07T11:25:05;3.38;;;2.00;;
80272;SDS011;69574;45.328;9.598;2023-05-07T11:27:31;4.22;;;2.45;;
80272;SDS011;69574;45.328;9.598;2023-05-07T11:29:57;3.72;;;1.90;;
80272;SDS011;69574;45.328;9.598;2023-05-07T11:32:22;3.30;;;1.90;;
80272;SDS011;69574;45.328;9.598;2023-05-07T11:34:52;3.60;;;1.80;;
80272;SDS011;69574;45.328;9.598;2023-05-07T11:37:18;3.90;;;1.92;;
80272;SDS011;69574;45.328;9.598;2023-05-07T11:39:44;4.15;;;1.80;;
80272;SDS011;69574;45.328;9.598;2023-05-07T11:42:24;3.58;;;1.88;;
80272;SDS011;69574;45.328;9.598;2023-05-07T11:44:50;4.90;;;1.50;;
80272;SDS011;69574;45.328;9.598;2023-05-07T11:47:19;3.13;;;1.55;;
80272;SDS011;69574;45.328;9.598;2023-05-07T11:49:46;7.18;;;2.00;;
80272;SDS011;69574;45.328;9.598;2023-05-07T11:52:14;2.78;;;1.48;;
80272;SDS011;69574;45.328;9.598;2023-05-07T11:54:40;2.83;;;1.50;;
80272;SDS011;69574;45.328;9.598;2023-05-07T11:57:05;2.20;;;1.38;;
80272;SDS011;69574;45.328;9.598;2023-05-07T11:59:38;2.60;;;1.48;;
80272;SDS011;69574;45.328;9.598;2023-05-07T12:02:03;4.82;;;1.58;;
80272;SDS011;69574;45.328;9.598;2023-05-07T12:04:29;2.75;;;1.25;;
80272;SDS011;69574;45.328;9.598;2023-05-07T12:06:56;2.85;;;1.50;;
80272;SDS011;69574;45.328;9.598;2023-05-07T12:09:24;2.67;;;1.40;;
80272;SDS011;69574;45.328;9.598;2023-05-07T12:11:49;2.60;;;1.38;;
80272;SDS011;69574;45.328;9.598;2023-05-07T12:14:16;3.58;;;1.40;;
80272;SDS011;69574;45.328;9.598;2023-05-07T12:16:42;3.13;;;1.40;;
80272;SDS011;69574;45.328;9.598;2023-05-07T12:19:08;1.63;;;1.20;;
80272;SDS011;69574;45.328;9.598;2023-05-07T12:21:37;3.78;;;1.35;;
80272;SDS011;69574;45.328;9.598;2023-05-07T12:24:03;3.83;;;1.20;;
80272;SDS011;69574;45.328;9.598;2023-05-07T12:26:30;2.47;;;1.30;;
80272;SDS011;69574;45.328;9.598;2023-05-07T12:28:56;2.97;;;1.20;;
80272;SDS011;69574;45.328;9.598;2023-05-07T12:33:47;10.27;;;2.13;;
80272;SDS011;69574;45.328;9.598;2023-05-07T12:36:13;2.60;;;1.23;;
80272;SDS011;69574;45.328;9.598;2023-05-07T12:38:39;2.30;;;1.30;;
80272;SDS011;69574;45.328;9.598;2023-05-07T12:41:06;3.55;;;1.35;;
80272;SDS011;69574;45.328;9.598;2023-05-07T12:43:34;3.47;;;1.45;;
80272;SDS011;69574;45.328;9.598;2023-05-07T12:46:00;5.47;;;1.50;;
80272;SDS011;69574;45.328;9.598;2023-05-07T12:48:26;4.20;;;1.30;;
80272;SDS011;69574;45.328;9.598;2023-05-07T12:50:53;3.80;;;1.40;;
80272;SDS011;69574;45.328;9.598;2023-05-07T12:53:20;3.63;;;1.40;;
80272;SDS011;69574;45.328;9.598;2023-05-07T12:55:46;6.63;;;1.50;;
80272;SDS011;69574;45.328;9.598;2023-05-07T12:58:15;3.88;;;1.25;;
80272;SDS011;69574;45.328;9.598;2023-05-07T13:00:43;2.20;;;1.20;;
80272;SDS011;69574;45.328;9.598;2023-05-07T13:03:09;3.58;;;1.40;;
80272;SDS011;69574;45.328;9.598;2023-05-07T13:05:35;4.68;;;1.60;;
80272;SDS011;69574;45.328;9.598;2023-05-07T13:08:00;2.55;;;1.30;;
80272;SDS011;69574;45.328;9.598;2023-05-07T13:10:26;3.47;;;1.45;;
80272;SDS011;69574;45.328;9.598;2023-05-07T13:12:52;3.25;;;1.50;;
80272;SDS011;69574;45.328;9.598;2023-05-07T13:15:18;4.32;;;1.70;;
80272;SDS011;69574;45.328;9.598;2023-05-07T13:17:45;3.10;;;1.60;;
80272;SDS011;69574;45.328;9.598;2023-05-07T13:20:11;2.92;;;1.50;;
80272;SDS011;69574;45.328;9.598;2023-05-07T13:22:38;3.38;;;1.80;;
80272;SDS011;69574;45.328;9.598;2023-05-07T13:25:04;3.03;;;1.80;;
80272;SDS011;69574;45.328;9.598;2023-05-07T13:27:29;3.05;;;1.80;;
80272;SDS011;69574;45.328;9.598;2023-05-07T13:29:56;4.75;;;2.03;;
80272;SDS011;69574;45.328;9.598;2023-05-07T13:32:21;3.92;;;1.80;;
80272;SDS011;69574;45.328;9.598;2023-05-07T13:34:48;9.45;;;2.38;;
80272;SDS011;69574;45.328;9.598;2023-05-07T13:37:14;3.75;;;1.90;;
80272;SDS011;69574;45.328;9.598;2023-05-07T13:39:40;5.32;;;2.10;;
80272;SDS011;69574;45.328;9.598;2023-05-07T13:42:06;3.35;;;1.92;;
80272;SDS011;69574;45.328;9.598;2023-05-07T13:44:31;3.88;;;1.90;;
80272;SDS011;69574;45.328;9.598;2023-05-07T13:46:57;3.42;;;2.10;;
80272;SDS011;69574;45.328;9.598;2023-05-07T13:49:23;3.92;;;2.10;;
80272;SDS011;69574;45.328;9.598;2023-05-07T13:54:16;3.17;;;2.07;;
80272;SDS011;69574;45.328;9.598;2023-05-07T13:56:41;3.47;;;2.10;;
80272;SDS011;69574;45.328;9.598;2023-05-07T13:59:07;3.40;;;2.10;;
80272;SDS011;69574;45.328;9.598;2023-05-07T14:01:33;4.03;;;2.70;;
80272;SDS011;69574;45.328;9.598;2023-05-07T14:03:58;7.60;;;2.80;;
80272;SDS011;69574;45.328;9.598;2023-05-07T14:06:24;4.15;;;2.60;;
80272;SDS011;69574;45.328;9.598;2023-05-07T14:08:50;4.13;;;2.47;;
80272;SDS011;69574;45.328;9.598;2023-05-07T14:11:17;6.40;;;2.70;;
80272;SDS011;69574;45.328;9.598;2023-05-07T14:13:43;7.20;;;3.13;;
80272;SDS011;69574;45.328;9.598;2023-05-07T14:16:08;9.45;;;2.85;;
80272;SDS011;69574;45.328;9.598;2023-05-07T14:18:34;6.95;;;3.38;;
80272;SDS011;69574;45.328;9.598;2023-05-07T14:21:02;5.75;;;3.10;;
80272;SDS011;69574;45.328;9.598;2023-05-07T14:23:27;4.72;;;3.17;;
80272;SDS011;69574;45.328;9.598;2023-05-07T14:25:53;5.53;;;3.30;;
80272;SDS011;69574;45.328;9.598;2023-05-07T14:28:20;5.63;;;3.53;;
80272;SDS011;69574;45.328;9.598;2023-05-07T14:30:46;4.80;;;3.05;;
80272;SDS011;69574;45.328;9.598;2023-05-07T14:33:12;4.28;;;2.90;;
80272;SDS011;69574;45.328;9.598;2023-05-07T14:35:37;4.20;;;2.83;;
80272;SDS011;69574;45.328;9.598;2023-05-07T14:38:03;5.90;;;3.35;;
80272;SDS011;69574;45.328;9.598;2023-05-07T14:40:29;4.30;;;2.95;;
80272;SDS011;69574;45.328;9.598;2023-05-07T14:42:54;5.85;;;2.92;;
80272;SDS011;69574;45.328;9.598;2023-05-07T14:45:23;5.00;;;3.15;;
80272;SDS011;69574;45.328;9.598;2023-05-07T14:47:49;5.35;;;3.78;;
80272;SDS011;69574;45.328;9.598;2023-05-07T14:50:14;5.45;;;3.25;;
80272;SDS011;69574;45.328;9.598;2023-05-07T14:52:40;6.13;;;3.42;;
80272;SDS011;69574;45.328;9.598;2023-05-07T14:55:06;5.85;;;3.85;;
80272;SDS011;69574;45.328;9.598;2023-05-07T14:57:32;5.35;;;3.30;;
80272;SDS011;69574;45.328;9.598;2023-05-07T15:00:00;5.93;;;3.78;;